If you wish to contribute or participate in the discussions about articles you are invited to join SKYbrary as a registered user

 Actions

Fasa Airport

From SKYbrary Wiki

OISF
Airport
ICAO: OISF – IATA: FAZ
Summary
Name Fasa Airport
Region Middle East
Territory Iran IR.gif
Location Fasa, Fars
Serving Fasa
Elevation 1,298.753 m
4,261 ft1,298.753 m
Coordinates 28° 53' 53.60" N, 53° 43' 15.28" E
Runways
Designator Length Width Surface ROPS
14/32 1982 m6,502.625 ft
30 m98.425 ft
ASP /


METAR
Observation OISF 190800Z 24016KT CAVOK 25/06 Q1014 A2996
Station Fasa
Date/Time 19 April 2019 08:00:00
Wind direction 240°
Wind speed 16 kts
Lowest cloud amount clouds and visibility OK
Temperature 25°C
Dew point 6°C
Humidity 29%
QNH 1014 hPa
Weather condition n/a

Airport serving Fast in the Far province of Iran.

Climatology

Warm Semi-arid climate (Köppen climate classification Bsh).

Maps

Terrain

Loading map...

Airport Layout

Loading map...


Accidents & Serious Incidents at or in vicinity of OISF

None on SKYbrary